createdAt,value
2018-12-19T00:02:01.162Z,96.20
2018-12-19T00:04:45.307Z,96.20
2018-12-19T00:07:28.989Z,96.30
2018-12-19T00:10:11.266Z,96.50
2018-12-19T00:12:53.215Z,96.40
2018-12-19T00:15:35.160Z,96.50
2018-12-19T00:18:17.266Z,96.30
2018-12-19T00:20:59.465Z,96.30
2018-12-19T00:23:42.255Z,96.10
2018-12-19T00:26:24.189Z,96.20
2018-12-19T00:29:08.314Z,96.20
2018-12-19T00:31:52.466Z,96.20
2018-12-19T00:34:36.774Z,96.20
2018-12-19T00:37:19.078Z,96.40
2018-12-19T00:40:01.166Z,96.50
2018-12-19T00:42:43.416Z,96.70
2018-12-19T00:45:25.204Z,96.80
2018-12-19T00:48:07.994Z,96.90
2018-12-19T00:50:50.318Z,96.80
2018-12-19T00:53:32.218Z,96.90
2018-12-19T00:56:14.506Z,96.90
2018-12-19T00:58:56.623Z,97.20
2018-12-19T01:01:38.494Z,97.20
2018-12-19T01:04:20.588Z,97.40
2018-12-19T01:07:02.695Z,97.40
2018-12-19T01:09:44.577Z,97.50
2018-12-19T01:12:26.898Z,97.60
2018-12-19T01:15:08.885Z,97.70
2018-12-19T01:17:50.666Z,97.80
2018-12-19T01:20:32.802Z,97.70
2018-12-19T01:23:14.794Z,97.80
2018-12-19T01:25:56.609Z,97.80
2018-12-19T01:28:38.535Z,97.90
2018-12-19T01:31:20.584Z,97.90
2018-12-19T01:34:02.631Z,97.80
2018-12-19T01:36:44.725Z,98.00
2018-12-19T01:39:26.479Z,97.70
2018-12-19T01:42:08.566Z,97.70
2018-12-19T01:44:50.598Z,97.70
2018-12-19T01:47:32.464Z,97.70
2018-12-19T01:50:14.202Z,97.80
2018-12-19T01:52:56.274Z,97.70
2018-12-19T01:55:38.120Z,97.80
2018-12-19T01:58:20.273Z,97.80
2018-12-19T02:01:02.430Z,97.80
2018-12-19T02:03:44.603Z,97.90
2018-12-19T02:06:26.782Z,97.90
2018-12-19T02:09:08.741Z,97.90
2018-12-19T02:11:50.827Z,97.90
2018-12-19T02:14:32.677Z,97.90
2018-12-19T02:17:14.979Z,97.70
2018-12-19T02:19:57.034Z,97.80
2018-12-19T02:22:39.387Z,97.90
2018-12-19T02:25:21.374Z,98.20
2018-12-19T02:28:03.215Z,98.30
2018-12-19T02:30:45.382Z,98.20
2018-12-19T02:33:27.713Z,98.30
2018-12-19T02:36:09.712Z,98.30
2018-12-19T02:38:51.931Z,98.20
2018-12-19T02:41:34.095Z,98.20
2018-12-19T02:44:15.960Z,98.20
2018-12-19T02:46:57.806Z,98.20
2018-12-19T02:49:39.869Z,98.20
2018-12-19T02:52:21.781Z,98.10
2018-12-19T02:55:03.971Z,98.10
2018-12-19T02:57:45.638Z,98.20
2018-12-19T03:00:27.961Z,98.10
2018-12-19T03:03:09.954Z,98.10
2018-12-19T03:05:52.201Z,98.20
2018-12-19T03:08:34.131Z,98.10
2018-12-19T03:11:16.371Z,98.10
2018-12-19T03:13:58.190Z,98.20
2018-12-19T03:16:40.189Z,98.20
2018-12-19T03:19:22.021Z,98.20
2018-12-19T03:22:04.217Z,98.10
2018-12-19T03:24:46.120Z,98.10
2018-12-19T03:27:27.854Z,98.20
2018-12-19T03:30:10.032Z,98.20
2018-12-19T03:32:52.079Z,98.10
2018-12-19T03:35:33.858Z,98.10
2018-12-19T03:38:21.254Z,98.30
2018-12-19T03:41:02.903Z,98.20
2018-12-19T03:43:45.048Z,98.40
2018-12-19T03:46:26.998Z,98.40
2018-12-19T03:49:09.117Z,98.40
2018-12-19T03:51:51.310Z,98.30
2018-12-19T03:54:33.338Z,98.30
2018-12-19T03:57:15.419Z,98.20
2018-12-19T03:59:57.339Z,98.20
2018-12-19T04:02:39.466Z,98.10
2018-12-19T04:05:21.202Z,98.10
2018-12-19T04:08:03.455Z,98.10
2018-12-19T04:10:45.454Z,98.10
2018-12-19T04:13:27.627Z,98.10
2018-12-19T04:16:09.498Z,98.10
2018-12-19T04:22:06.064Z,98.10
2018-12-19T04:24:48.366Z,98.10
2018-12-19T04:27:30.310Z,98.40
2018-12-19T04:30:12.494Z,98.00
2018-12-19T04:32:54.699Z,98.00
2018-12-19T04:35:36.634Z,98.00
2018-12-19T04:38:18.575Z,97.90
2018-12-19T04:41:00.663Z,97.90
2018-12-19T04:43:42.608Z,98.20
2018-12-19T04:46:24.501Z,97.70
2018-12-19T04:49:06.424Z,97.70
2018-12-19T04:51:48.420Z,97.70
2018-12-19T04:54:30.463Z,97.60
2018-12-19T04:57:12.390Z,97.60
2018-12-19T04:59:54.382Z,97.50
2018-12-19T05:02:36.447Z,97.60
2018-12-19T05:05:18.352Z,97.80
2018-12-19T05:08:00.664Z,97.80
2018-12-19T05:10:42.455Z,98.10
2018-12-19T05:13:24.445Z,98.10
2018-12-19T05:16:06.363Z,98.30
2018-12-19T05:18:48.306Z,98.40
2018-12-19T05:21:30.221Z,98.50
2018-12-19T05:24:11.975Z,98.60
2018-12-19T05:26:54.178Z,98.50
2018-12-19T05:29:35.971Z,98.60
2018-12-19T05:32:17.978Z,98.80
2018-12-19T05:34:59.965Z,98.90
2018-12-19T05:37:41.921Z,98.60
2018-12-19T05:40:24.023Z,98.70
2018-12-19T05:43:05.930Z,98.80
2018-12-19T05:45:47.925Z,98.90
2018-12-19T05:48:30.072Z,98.90
2018-12-19T05:51:12.206Z,99.00
2018-12-19T05:53:54.124Z,99.30
2018-12-19T05:56:36.457Z,99.60
2018-12-19T05:59:18.201Z,99.40
2018-12-19T06:02:00.462Z,99.10
2018-12-19T06:04:42.370Z,98.90
2018-12-19T06:07:24.534Z,98.90
2018-12-19T06:10:06.509Z,98.90
2018-12-19T06:12:48.687Z,98.90
2018-12-19T06:15:30.841Z,98.90
2018-12-19T06:18:12.469Z,99.00
2018-12-19T06:20:54.540Z,99.00
2018-12-19T06:23:36.705Z,99.10
2018-12-19T06:26:18.617Z,99.10
2018-12-19T06:29:06.884Z,99.00
2018-12-19T06:31:49.971Z,98.90
2018-12-19T06:34:32.094Z,99.40
2018-12-19T06:37:13.914Z,99.50
2018-12-19T06:39:56.086Z,99.60
2018-12-19T06:42:37.983Z,99.00
2018-12-19T06:45:19.850Z,98.90
2018-12-19T06:48:01.880Z,98.90
2018-12-19T06:50:43.829Z,98.70
2018-12-19T06:53:25.890Z,98.70
2018-12-19T06:56:07.890Z,98.80
2018-12-19T06:58:49.839Z,98.70
2018-12-19T07:01:32.201Z,98.90
2018-12-19T07:04:14.270Z,98.90
2018-12-19T07:06:56.158Z,99.00
2018-12-19T07:09:38.191Z,98.90
2018-12-19T07:12:20.270Z,98.90
2018-12-19T07:15:02.298Z,98.90
2018-12-19T07:17:44.563Z,98.80
2018-12-19T07:20:26.478Z,98.80
2018-12-19T07:23:08.269Z,98.70
2018-12-19T07:25:50.150Z,98.70
2018-12-19T07:28:32.373Z,99.00
2018-12-19T07:31:14.354Z,98.80
2018-12-19T07:33:56.436Z,98.80
2018-12-19T07:36:38.433Z,98.70
2018-12-19T07:39:20.595Z,98.70
2018-12-19T07:42:02.421Z,98.70
2018-12-19T07:44:44.561Z,98.80
2018-12-19T07:47:26.634Z,98.70
2018-12-19T07:50:08.541Z,98.60
2018-12-19T07:52:50.482Z,98.70
2018-12-19T07:55:35.917Z,98.60
2018-12-19T07:58:17.404Z,98.60
2018-12-19T08:00:59.538Z,98.60
2018-12-19T08:03:41.346Z,98.70
2018-12-19T08:06:23.646Z,98.70
2018-12-19T08:09:08.219Z,98.60
2018-12-19T08:11:50.555Z,98.40
2018-12-19T08:14:32.463Z,98.20
2018-12-19T08:17:14.254Z,98.10
2018-12-19T08:19:56.391Z,98.10
2018-12-19T08:22:38.309Z,98.10
2018-12-19T08:25:20.478Z,98.00
2018-12-19T08:28:02.676Z,97.90
2018-12-19T08:30:44.207Z,97.80
2018-12-19T08:33:26.329Z,97.80
2018-12-19T08:36:08.087Z,97.90
2018-12-19T08:38:50.234Z,97.80
2018-12-19T08:41:31.983Z,97.60
2018-12-19T08:44:14.054Z,97.30
2018-12-19T08:46:55.994Z,97.10
2018-12-19T08:49:37.965Z,97.00
2018-12-19T08:52:20.008Z,96.80
2018-12-19T08:55:01.930Z,96.70
2018-12-19T08:57:43.785Z,96.70
2018-12-19T09:00:26.060Z,96.80
2018-12-19T09:03:07.982Z,96.90
2018-12-19T09:05:50.198Z,96.90
2018-12-19T09:08:32.186Z,96.90
2018-12-19T09:11:28.759Z,96.90
2018-12-19T09:14:11.123Z,96.60
2018-12-19T09:16:53.382Z,96.90
2018-12-19T09:19:35.402Z,96.80
2018-12-19T09:22:18.126Z,96.90
2018-12-19T09:25:00.445Z,96.80
2018-12-19T09:27:42.593Z,96.60
2018-12-19T09:30:24.900Z,96.50
2018-12-19T09:33:06.474Z,96.30
2018-12-19T09:35:48.462Z,96.20
2018-12-19T09:38:31.522Z,96.10
2018-12-19T09:41:13.665Z,96.10
2018-12-19T09:43:56.551Z,95.90
2018-12-19T09:46:38.487Z,95.90
2018-12-19T09:49:20.340Z,95.90
2018-12-19T09:52:02.295Z,96.00
2018-12-19T09:54:44.293Z,95.70
2018-12-19T09:57:26.606Z,95.80
2018-12-19T10:00:14.937Z,95.60
2018-12-19T10:02:56.773Z,95.50
2018-12-19T10:05:38.618Z,95.40
2018-12-19T10:08:20.582Z,95.40
2018-12-19T10:11:02.750Z,95.40
2018-12-19T10:13:44.489Z,95.40
2018-12-19T10:16:26.662Z,95.30
2018-12-19T10:19:08.743Z,95.40
2018-12-19T10:21:51.636Z,95.20
2018-12-19T10:24:39.206Z,95.10
2018-12-19T10:27:21.552Z,94.90
2018-12-19T10:30:04.127Z,94.60
2018-12-19T10:32:47.773Z,94.30
2018-12-19T10:35:29.667Z,94.20
2018-12-19T10:38:12.054Z,94.20
2018-12-19T10:40:53.990Z,93.90
2018-12-19T10:43:35.757Z,94.00
2018-12-19T10:46:17.617Z,93.90
2018-12-19T10:48:59.682Z,93.90
2018-12-19T10:51:41.573Z,94.10
2018-12-19T10:54:23.720Z,93.50
2018-12-19T10:57:05.955Z,93.10
2018-12-19T11:00:51.025Z,92.90
2018-12-19T11:03:32.811Z,93.00
2018-12-19T11:06:14.797Z,93.10
2018-12-19T11:08:56.771Z,92.50
2018-12-19T11:11:38.877Z,91.60
2018-12-19T11:14:20.991Z,92.30
2018-12-19T11:17:02.997Z,92.40
2018-12-19T11:19:44.835Z,91.90
2018-12-19T11:22:27.100Z,92.10
2018-12-19T11:25:09.402Z,91.90
2018-12-19T11:27:51.417Z,91.80
2018-12-19T11:30:34.411Z,91.80
2018-12-19T11:33:16.449Z,91.10
2018-12-19T11:35:58.405Z,91.30
2018-12-19T11:38:40.376Z,90.90
2018-12-19T11:41:22.619Z,91.20
2018-12-19T11:44:04.794Z,91.00
2018-12-19T11:46:46.758Z,91.10
2018-12-19T11:49:28.665Z,91.00
2018-12-19T11:52:10.330Z,90.80
2018-12-19T11:54:52.396Z,90.60
2018-12-19T11:57:34.559Z,90.80
2018-12-19T12:00:16.574Z,90.40
2018-12-19T12:02:58.517Z,90.70
2018-12-19T12:05:40.490Z,90.40
2018-12-19T12:08:22.471Z,90.60
2018-12-19T12:11:04.610Z,90.60
2018-12-19T12:13:46.653Z,90.10
2018-12-19T12:16:28.560Z,90.90
2018-12-19T12:19:10.712Z,90.10
2018-12-19T12:21:52.777Z,90.50
2018-12-19T12:24:35.070Z,90.60
2018-12-19T12:27:17.054Z,90.60
2018-12-19T12:29:59.148Z,91.00
2018-12-19T12:32:41.253Z,91.00
2018-12-19T12:35:23.405Z,91.00
2018-12-19T12:38:05.115Z,91.10
2018-12-19T12:40:47.271Z,91.10
2018-12-19T12:43:29.238Z,90.90
2018-12-19T12:46:11.391Z,91.00
2018-12-19T12:48:53.358Z,90.80
2018-12-19T12:51:35.461Z,91.00
2018-12-19T12:54:17.325Z,90.50
2018-12-19T12:56:59.600Z,90.60
2018-12-19T12:59:41.652Z,90.20
2018-12-19T13:02:23.477Z,90.20
2018-12-19T13:05:05.529Z,89.90
2018-12-19T13:07:47.465Z,89.50
2018-12-19T13:10:36.072Z,87.80
2018-12-19T13:13:13.491Z,84.30
2018-12-19T13:15:55.426Z,81.00
2018-12-19T13:18:37.854Z,81.50
2018-12-19T13:21:19.691Z,81.00
2018-12-19T13:24:01.472Z,76.90
2018-12-19T13:26:43.610Z,78.60
2018-12-19T13:29:25.702Z,77.30
2018-12-19T13:32:08.712Z,76.60
2018-12-19T13:34:51.165Z,73.80
2018-12-19T13:37:32.995Z,70.30
2018-12-19T13:40:14.969Z,70.40
2018-12-19T13:42:56.857Z,69.20
2018-12-19T13:45:38.841Z,67.30
2018-12-19T13:48:20.536Z,65.90
2018-12-19T13:51:02.595Z,62.50
2018-12-19T13:53:44.532Z,60.80
2018-12-19T13:56:26.515Z,60.00
2018-12-19T13:59:09.562Z,60.70
2018-12-19T14:01:51.739Z,61.70
2018-12-19T14:04:33.931Z,63.60
2018-12-19T14:07:15.915Z,67.30
2018-12-19T14:09:57.847Z,70.80
2018-12-19T14:12:39.835Z,74.40
2018-12-19T14:15:21.758Z,77.60
2018-12-19T14:18:04.059Z,79.60
2018-12-19T14:20:46.070Z,80.90
2018-12-19T14:23:28.095Z,81.80
2018-12-19T14:26:10.115Z,83.10
2018-12-19T14:28:52.028Z,83.40
2018-12-19T14:31:33.977Z,82.50
2018-12-19T14:34:15.991Z,82.50
2018-12-19T14:36:58.144Z,83.00
2018-12-19T14:39:40.082Z,83.40
2018-12-19T14:42:22.226Z,83.90
2018-12-19T14:45:04.864Z,85.00
2018-12-19T14:47:47.262Z,85.60
2018-12-19T14:50:29.070Z,86.40
2018-12-19T14:53:11.349Z,87.00
2018-12-19T14:55:53.308Z,87.50
2018-12-19T14:58:35.147Z,88.00
2018-12-19T15:01:17.511Z,88.40
2018-12-19T15:03:59.209Z,88.60
2018-12-19T15:06:41.169Z,88.70
2018-12-19T15:09:23.493Z,88.90
2018-12-19T15:12:05.235Z,89.10
2018-12-19T15:14:47.309Z,89.40
2018-12-19T15:17:29.463Z,89.80
2018-12-19T15:20:11.381Z,90.00
2018-12-19T15:22:53.532Z,90.20
2018-12-19T15:25:35.227Z,90.30
2018-12-19T15:28:17.093Z,90.50
2018-12-19T15:30:59.021Z,90.70
2018-12-19T15:33:40.918Z,90.80
2018-12-19T15:36:23.465Z,90.80
2018-12-19T15:39:08.014Z,90.80
2018-12-19T15:41:50.482Z,91.00
2018-12-19T15:44:32.665Z,91.00
2018-12-19T15:47:14.884Z,91.10
2018-12-19T15:49:56.847Z,91.10
2018-12-19T15:52:38.577Z,91.20
2018-12-19T15:55:20.730Z,91.20
2018-12-19T15:58:02.786Z,91.30
2018-12-19T16:00:44.733Z,91.40
2018-12-19T16:03:26.743Z,91.50
2018-12-19T16:06:08.693Z,91.50
2018-12-19T16:08:50.795Z,91.50
2018-12-19T16:11:32.866Z,91.60
2018-12-19T16:14:14.772Z,91.60
2018-12-19T16:16:56.665Z,91.70
2018-12-19T16:19:38.830Z,92.10
2018-12-19T16:22:20.717Z,92.30
2018-12-19T16:25:02.676Z,92.40
2018-12-19T16:27:44.425Z,92.40
2018-12-19T16:30:26.476Z,92.50
2018-12-19T16:33:08.423Z,93.00
2018-12-19T16:35:50.494Z,92.60
2018-12-19T16:38:32.449Z,92.70
2018-12-19T16:41:14.297Z,92.90
2018-12-19T16:43:56.466Z,93.10
2018-12-19T16:46:38.337Z,93.50
2018-12-19T16:49:20.462Z,93.50
2018-12-19T16:52:02.370Z,93.60
2018-12-19T16:54:44.277Z,93.50
2018-12-19T16:57:26.246Z,93.70
2018-12-19T17:00:10.155Z,93.80
2018-12-19T17:02:52.211Z,94.00
2018-12-19T17:05:34.345Z,94.00
2018-12-19T17:08:16.162Z,94.10
2018-12-19T17:10:58.319Z,94.10
2018-12-19T17:13:40.335Z,94.10
2018-12-19T17:16:22.494Z,93.90
2018-12-19T17:19:04.467Z,93.90
2018-12-19T17:21:46.239Z,93.90
2018-12-19T17:24:33.806Z,93.90
2018-12-19T17:27:16.161Z,93.70
2018-12-19T17:29:58.266Z,93.80
2018-12-19T17:32:40.326Z,93.80
2018-12-19T17:35:22.039Z,94.00
2018-12-19T17:38:04.198Z,94.10
2018-12-19T17:40:45.883Z,94.30
2018-12-19T17:43:28.087Z,94.40
2018-12-19T17:46:10.269Z,94.40
2018-12-19T17:48:52.321Z,94.50
2018-12-19T17:51:34.114Z,94.70
2018-12-19T17:54:16.226Z,94.90
2018-12-19T17:56:58.315Z,94.90
2018-12-19T17:59:40.447Z,94.90
2018-12-19T18:02:22.977Z,94.90
2018-12-19T18:05:05.537Z,94.90
2018-12-19T18:07:47.274Z,95.20
2018-12-19T18:10:29.361Z,95.20
2018-12-19T18:13:11.332Z,95.30
2018-12-19T18:15:53.127Z,95.60
2018-12-19T18:18:35.275Z,95.70
2018-12-19T18:21:17.282Z,95.90
2018-12-19T18:23:59.408Z,96.10
2018-12-19T18:26:41.459Z,96.20
2018-12-19T18:29:23.414Z,96.10
2018-12-19T18:32:05.307Z,96.10
2018-12-19T18:34:47.403Z,96.00
2018-12-19T18:37:29.497Z,95.90
2018-12-19T18:40:11.402Z,95.90
2018-12-19T18:42:53.317Z,95.70
2018-12-19T18:45:35.380Z,95.80
2018-12-19T18:48:17.401Z,95.90
2018-12-19T18:50:59.495Z,95.90
2018-12-19T18:53:41.327Z,96.00
2018-12-19T18:56:23.539Z,96.00
2018-12-19T18:59:05.751Z,96.10
2018-12-19T19:01:47.702Z,96.00
2018-12-19T19:04:29.563Z,96.20
2018-12-19T19:07:11.566Z,96.00
2018-12-19T19:09:53.650Z,95.90
2018-12-19T19:12:35.510Z,95.90
2018-12-19T19:15:17.622Z,95.90
2018-12-19T19:17:59.637Z,95.90
2018-12-19T19:20:41.611Z,95.90
2018-12-19T19:23:23.639Z,95.90
2018-12-19T19:26:05.541Z,95.90
2018-12-19T19:28:47.806Z,95.80
2018-12-19T19:31:29.755Z,95.80
2018-12-19T19:34:11.858Z,95.90
2018-12-19T19:36:53.780Z,95.80
2018-12-19T19:39:35.814Z,95.90
2018-12-19T19:42:18.017Z,96.00
2018-12-19T19:44:59.813Z,95.90
2018-12-19T19:47:41.928Z,95.90
2018-12-19T19:50:23.839Z,95.90
2018-12-19T19:53:05.872Z,95.90
2018-12-19T19:55:47.829Z,95.90
2018-12-19T19:58:29.754Z,95.90
2018-12-19T20:01:12.627Z,95.90
2018-12-19T20:03:54.854Z,95.90
2018-12-19T20:06:36.849Z,95.80
2018-12-19T20:09:18.704Z,95.80
2018-12-19T20:12:00.854Z,95.80
2018-12-19T20:14:42.904Z,95.90
2018-12-19T20:17:27.229Z,95.90
2018-12-19T20:20:09.326Z,95.90
2018-12-19T20:22:51.091Z,95.80
2018-12-19T20:25:33.141Z,95.80
2018-12-19T20:28:45.745Z,95.70
2018-12-19T20:31:27.410Z,95.70
2018-12-19T20:34:09.510Z,95.60
2018-12-19T20:36:51.699Z,95.60
2018-12-19T20:39:33.493Z,95.60
2018-12-19T20:42:15.566Z,95.60
2018-12-19T20:44:57.597Z,95.70
2018-12-19T20:47:39.589Z,95.70
2018-12-19T20:50:21.551Z,95.70
2018-12-19T20:53:03.506Z,95.80
2018-12-19T20:55:45.365Z,96.20
2018-12-19T20:58:27.435Z,96.40
2018-12-19T21:01:09.518Z,96.70
2018-12-19T21:03:51.443Z,97.10
2018-12-19T21:06:33.234Z,97.60
2018-12-19T21:09:15.681Z,97.80
2018-12-19T21:11:57.988Z,97.90
2018-12-19T21:14:40.084Z,98.10
2018-12-19T21:17:27.510Z,98.30
2018-12-19T21:20:09.244Z,98.50
2018-12-19T21:22:51.379Z,98.40
2018-12-19T21:25:33.381Z,98.50
2018-12-19T21:28:15.406Z,98.60
2018-12-19T21:30:57.398Z,98.80
2018-12-19T21:33:39.336Z,98.90
2018-12-19T21:36:21.189Z,99.00
2018-12-19T21:39:03.259Z,99.20
2018-12-19T21:41:45.159Z,99.30
2018-12-19T21:44:27.307Z,99.20
2018-12-19T21:47:09.253Z,99.20
2018-12-19T21:49:51.489Z,99.20
2018-12-19T21:52:33.502Z,99.30
2018-12-19T21:55:16.764Z,99.30
2018-12-19T21:57:58.720Z,99.20
2018-12-19T22:00:41.219Z,99.20
2018-12-19T22:03:23.522Z,99.20
2018-12-19T22:06:05.771Z,99.30
2018-12-19T22:08:47.914Z,99.00
2018-12-19T22:11:30.080Z,99.20
2018-12-19T22:14:11.975Z,99.10
2018-12-19T22:16:59.221Z,99.00
2018-12-19T22:19:40.980Z,99.00
2018-12-19T22:22:22.998Z,99.00
2018-12-19T22:25:05.345Z,99.00
2018-12-19T22:27:46.982Z,99.10
2018-12-19T22:30:29.091Z,99.10
2018-12-19T22:33:11.192Z,99.00
2018-12-19T22:35:53.016Z,98.90
2018-12-19T22:38:35.144Z,99.20
2018-12-19T22:41:17.322Z,99.10
2018-12-19T22:43:59.050Z,99.00
2018-12-19T22:46:41.210Z,99.10
2018-12-19T22:49:23.251Z,99.10
2018-12-19T22:52:05.415Z,99.20
2018-12-19T22:54:47.224Z,99.20
2018-12-19T22:57:29.124Z,99.20
2018-12-19T23:00:16.778Z,99.30
2018-12-19T23:03:06.741Z,99.30
2018-12-19T23:05:51.079Z,99.30
2018-12-19T23:08:33.516Z,99.50
2018-12-19T23:11:15.530Z,99.50
2018-12-19T23:13:57.531Z,99.40
2018-12-19T23:16:45.737Z,99.40
2018-12-19T23:19:33.764Z,99.40
2018-12-19T23:22:21.879Z,99.40
2018-12-19T23:25:10.039Z,99.30
2018-12-19T23:27:54.114Z,99.30
2018-12-19T23:30:36.099Z,99.30
2018-12-19T23:33:18.131Z,99.20
2018-12-19T23:36:00.335Z,99.20
2018-12-19T23:38:42.180Z,99.30
2018-12-19T23:41:24.394Z,99.40
2018-12-19T23:44:06.332Z,99.20
2018-12-19T23:46:48.605Z,99.30
2018-12-19T23:49:30.394Z,99.20
2018-12-19T23:52:12.611Z,99.20
2018-12-19T23:54:54.561Z,99.10
2018-12-19T23:57:36.965Z,99.20
